createdAt,value
2022-11-14T00:04:00.813Z,10.30
2022-11-14T00:09:04.555Z,10.30
2022-11-14T00:14:12.863Z,10.40
2022-11-14T00:19:17.755Z,10.40
2022-11-14T00:24:22.475Z,10.40
2022-11-14T00:29:24.894Z,10.50
2022-11-14T00:34:27.196Z,10.50
2022-11-14T00:39:30.905Z,10.50
2022-11-14T00:44:33.665Z,10.50
2022-11-14T00:49:38.524Z,10.50
2022-11-14T00:54:42.322Z,10.50
2022-11-14T00:59:44.751Z,10.50
2022-11-14T01:04:47.087Z,10.50
2022-11-14T01:09:50.896Z,10.50
2022-11-14T01:14:54.904Z,10.40
2022-11-14T01:20:00.739Z,10.40
2022-11-14T01:25:05.532Z,10.40
2022-11-14T01:30:08.791Z,10.30
2022-11-14T01:35:11.261Z,10.30
2022-11-14T01:40:15.152Z,10.30
2022-11-14T01:45:51.499Z,10.30
2022-11-14T01:50:57.632Z,10.30
2022-11-14T01:56:04.838Z,10.30
2022-11-14T02:01:07.023Z,10.30
2022-11-14T02:06:13.273Z,10.20
2022-11-14T02:11:18.351Z,10.10
2022-11-14T02:16:20.879Z,10.10
2022-11-14T02:21:24.727Z,10.10
2022-11-14T02:26:27.037Z,10.10
2022-11-14T02:31:29.348Z,10.00
2022-11-14T02:36:33.494Z,9.90
2022-11-14T02:41:35.808Z,9.90
2022-11-14T02:46:40.080Z,9.90
2022-11-14T02:51:49.619Z,9.90
2022-11-14T02:56:52.050Z,9.90
2022-11-14T03:01:54.444Z,9.80
2022-11-14T03:06:58.530Z,9.80
2022-11-14T03:12:04.246Z,9.80
2022-11-14T03:17:06.585Z,9.80
2022-11-14T03:22:12.871Z,9.80
2022-11-14T03:27:18.034Z,9.80
2022-11-14T03:32:23.025Z,9.80
2022-11-14T03:37:30.338Z,9.80
2022-11-14T03:42:33.809Z,9.70
2022-11-14T03:47:40.682Z,9.70
2022-11-14T03:52:44.565Z,9.70
2022-11-14T03:57:50.155Z,9.70
2022-11-14T04:02:56.388Z,9.70
2022-11-14T04:08:00.379Z,9.60
2022-11-14T04:13:05.090Z,9.60
2022-11-14T04:18:10.589Z,9.60
2022-11-14T04:23:14.292Z,9.60
2022-11-14T04:28:16.811Z,9.60
2022-11-14T04:33:19.187Z,9.60
2022-11-14T04:38:22.889Z,9.60
2022-11-14T04:43:25.207Z,9.60
2022-11-14T04:48:27.701Z,9.60
2022-11-14T04:53:31.629Z,9.60
2022-11-14T04:58:34.140Z,9.70
2022-11-14T05:03:36.593Z,9.60
2022-11-14T05:08:40.309Z,9.60
2022-11-14T05:13:42.808Z,9.50
2022-11-14T05:18:47.126Z,9.40
2022-11-14T05:23:51.044Z,9.30
2022-11-14T05:29:00.764Z,9.30
2022-11-14T05:34:03.209Z,9.20
2022-11-14T05:39:06.866Z,9.20
2022-11-14T05:44:09.170Z,9.20
2022-11-14T05:49:11.365Z,9.20
2022-11-14T05:54:22.383Z,9.20
2022-11-14T05:59:24.612Z,9.30
2022-11-14T06:04:26.803Z,9.30
2022-11-14T06:09:30.429Z,9.30
2022-11-14T06:14:32.755Z,9.20
2022-11-14T06:19:36.861Z,9.20
2022-11-14T06:24:40.613Z,9.20
2022-11-14T06:29:42.970Z,9.20
2022-11-14T06:34:47.716Z,9.20
2022-11-14T06:39:51.567Z,9.20
2022-11-14T06:44:53.886Z,9.20
2022-11-14T06:49:56.270Z,9.20
2022-11-14T06:54:59.988Z,9.10
2022-11-14T07:00:05.741Z,9.00
2022-11-14T07:05:08.225Z,9.00
2022-11-14T07:10:12.626Z,8.90
2022-11-14T07:15:15.008Z,8.90
2022-11-14T07:20:17.467Z,8.80
2022-11-14T07:25:21.340Z,8.80
2022-11-14T07:30:23.681Z,8.80
2022-11-14T07:35:28.884Z,8.80
2022-11-14T07:40:32.773Z,8.70
2022-11-14T07:45:34.957Z,8.70
2022-11-14T07:50:37.206Z,8.70
2022-11-14T07:55:40.938Z,8.70
2022-11-14T08:00:45.170Z,8.70
2022-11-14T08:05:47.552Z,8.70
2022-11-14T08:10:51.264Z,8.80
2022-11-14T08:15:53.709Z,8.80
2022-11-14T08:20:55.975Z,8.80
2022-11-14T08:26:04.210Z,8.90
2022-11-14T08:31:06.751Z,8.90
2022-11-14T08:36:11.353Z,8.90
2022-11-14T08:41:15.030Z,9.00
2022-11-14T08:46:17.363Z,9.00
2022-11-14T08:51:19.909Z,9.00
2022-11-14T08:56:26.741Z,9.00
2022-11-14T09:01:29.156Z,9.00
2022-11-14T09:06:31.595Z,9.00
2022-11-14T09:11:37.954Z,9.10
2022-11-14T09:16:40.242Z,9.20
2022-11-14T09:21:42.751Z,9.20
2022-11-14T09:26:46.579Z,9.30
2022-11-14T09:31:51.553Z,9.40
2022-11-14T09:36:54.059Z,9.50
2022-11-14T09:42:15.800Z,9.70
2022-11-14T09:47:24.718Z,9.80
2022-11-14T09:52:33.840Z,9.80
2022-11-14T09:57:37.732Z,9.90
2022-11-14T10:02:49.724Z,9.90
2022-11-14T10:08:10.040Z,10.00
2022-11-14T10:13:26.422Z,10.00
2022-11-14T10:18:43.841Z,10.10
2022-11-14T10:24:01.017Z,10.10
2022-11-14T10:29:12.203Z,10.20
2022-11-14T10:34:20.685Z,10.30
2022-11-14T10:39:27.935Z,10.30
2022-11-14T10:44:35.047Z,10.50
2022-11-14T10:49:38.816Z,10.90
2022-11-14T10:54:45.900Z,11.20
2022-11-14T10:59:49.664Z,11.30
2022-11-14T11:04:52.203Z,11.50
2022-11-14T11:10:00.891Z,11.80
2022-11-14T11:15:16.150Z,12.00
2022-11-14T11:20:41.528Z,12.10
2022-11-14T11:25:43.953Z,12.30
2022-11-14T11:30:56.781Z,12.40
2022-11-14T11:36:02.609Z,12.50
2022-11-14T11:41:33.256Z,12.60
2022-11-14T11:46:47.190Z,12.70
2022-11-14T11:51:56.162Z,12.80
2022-11-14T11:57:02.612Z,12.70
2022-11-14T12:02:22.531Z,12.70
2022-11-14T12:07:38.603Z,12.50
2022-11-14T12:12:58.978Z,12.40
2022-11-14T12:18:27.422Z,12.40
2022-11-14T12:23:59.825Z,12.40
2022-11-14T12:29:25.245Z,12.40
2022-11-14T12:34:32.750Z,12.40
2022-11-14T12:39:35.197Z,12.50
2022-11-14T12:44:39.723Z,12.50
2022-11-14T12:50:02.087Z,12.50
2022-11-14T12:55:04.620Z,12.50
2022-11-14T13:00:09.462Z,12.50
2022-11-14T13:05:33.598Z,12.50
2022-11-14T13:10:39.270Z,12.30
2022-11-14T13:15:51.735Z,12.20
2022-11-14T13:21:05.156Z,12.10
2022-11-14T13:26:43.819Z,12.00
2022-11-14T13:31:51.675Z,11.90
2022-11-14T13:37:05.523Z,11.70
2022-11-14T13:42:28.646Z,11.70
2022-11-14T13:48:13.065Z,11.50
2022-11-14T13:53:20.170Z,11.40
2022-11-14T13:58:33.301Z,11.40
2022-11-14T14:03:52.175Z,11.30
2022-11-14T14:09:23.487Z,11.30
2022-11-14T14:14:39.760Z,11.10
2022-11-14T14:19:53.504Z,11.00
2022-11-14T14:25:05.139Z,10.80
2022-11-14T14:30:11.010Z,10.60
2022-11-14T14:35:24.749Z,10.50
2022-11-14T14:40:33.788Z,10.30
2022-11-14T14:45:45.453Z,10.20
2022-11-14T14:50:51.377Z,10.20
2022-11-14T14:55:57.949Z,10.10
2022-11-14T15:01:03.016Z,9.90
2022-11-14T15:06:07.856Z,9.90
2022-11-14T15:11:14.111Z,9.80
2022-11-14T15:16:17.139Z,9.70
2022-11-14T15:21:30.415Z,9.60
2022-11-14T15:26:35.714Z,9.50
2022-11-14T15:31:38.098Z,9.40
2022-11-14T15:37:18.281Z,9.30
2022-11-14T15:42:28.642Z,9.30
2022-11-14T15:47:38.383Z,9.20
2022-11-14T15:52:47.919Z,9.10
2022-11-14T15:58:06.752Z,9.00
2022-11-14T16:03:17.566Z,9.00
2022-11-14T16:08:21.059Z,8.90
2022-11-14T16:13:24.908Z,8.80
2022-11-14T16:18:27.142Z,8.80
2022-11-14T16:23:30.000Z,8.80
2022-11-14T16:28:34.095Z,8.70
2022-11-14T16:33:42.572Z,8.70
2022-11-14T16:38:48.578Z,8.70
2022-11-14T16:43:56.985Z,8.60
2022-11-14T16:48:59.368Z,8.60
2022-11-14T16:54:01.679Z,8.50
2022-11-14T16:59:05.884Z,8.50
2022-11-14T17:04:08.520Z,8.50
2022-11-14T17:09:13.536Z,8.50
2022-11-14T17:14:17.236Z,8.50
2022-11-14T17:19:19.744Z,8.50
2022-11-14T17:24:24.106Z,8.50
2022-11-14T17:29:31.158Z,8.50
2022-11-14T17:34:33.586Z,8.50
2022-11-14T17:39:36.248Z,8.50
2022-11-14T17:44:43.836Z,8.60
2022-11-14T17:49:46.341Z,8.60
2022-11-14T17:54:48.673Z,8.60
2022-11-14T17:59:52.368Z,8.70
2022-11-14T18:04:54.561Z,8.60
2022-11-14T18:10:00.953Z,8.60
2022-11-14T18:15:05.413Z,8.60
2022-11-14T18:20:09.278Z,8.60
2022-11-14T18:25:11.588Z,8.50
2022-11-14T18:30:39.737Z,8.50
2022-11-14T18:35:37.942Z,8.40
2022-11-14T18:40:43.846Z,8.40
2022-11-14T18:45:48.195Z,8.30
2022-11-14T18:50:51.127Z,8.30
2022-11-14T18:55:53.646Z,8.30
2022-11-14T19:00:57.773Z,8.20
2022-11-14T19:06:02.644Z,8.30
2022-11-14T19:11:07.341Z,8.30
2022-11-14T19:16:17.061Z,8.30
2022-11-14T19:21:19.698Z,8.30
2022-11-14T19:26:22.449Z,8.20
2022-11-14T19:31:26.232Z,8.20
2022-11-14T19:36:57.616Z,8.20
2022-11-14T19:41:51.224Z,8.20
2022-11-14T19:46:55.228Z,8.20
2022-11-14T19:51:57.622Z,8.10
2022-11-14T19:56:59.827Z,8.10
2022-11-14T20:02:03.917Z,8.10
2022-11-14T20:07:06.777Z,8.10
2022-11-14T20:12:09.054Z,8.10
2022-11-14T20:17:12.982Z,8.20
2022-11-14T20:22:15.506Z,8.20
2022-11-14T20:27:22.083Z,8.30
2022-11-14T20:32:26.195Z,8.40
2022-11-14T20:37:28.619Z,8.50
2022-11-14T20:42:30.981Z,8.50
2022-11-14T20:47:34.840Z,8.50
2022-11-14T20:52:37.234Z,8.60
2022-11-14T20:57:40.382Z,8.70
2022-11-14T21:02:44.092Z,8.80
2022-11-14T21:07:46.493Z,8.80
2022-11-14T21:12:49.644Z,8.90
2022-11-14T21:17:56.135Z,9.00
2022-11-14T21:22:58.432Z,9.10
2022-11-14T21:28:00.593Z,9.20
2022-11-14T21:33:04.472Z,9.20
2022-11-14T21:38:06.725Z,9.30
2022-11-14T21:43:09.083Z,9.30
2022-11-14T21:48:12.882Z,9.40
2022-11-14T21:53:15.135Z,9.50
2022-11-14T21:58:17.499Z,9.50
2022-11-14T22:03:21.298Z,9.60
2022-11-14T22:08:28.057Z,9.70
2022-11-14T22:13:31.711Z,9.70
2022-11-14T22:18:35.681Z,9.80
2022-11-14T22:23:37.951Z,9.80
2022-11-14T22:28:40.679Z,9.80
2022-11-14T22:33:47.331Z,9.90
2022-11-14T22:38:54.241Z,9.90
2022-11-14T22:43:57.591Z,10.00
2022-11-14T22:49:01.503Z,10.10
2022-11-14T22:54:03.960Z,10.10
2022-11-14T22:59:06.331Z,10.10
2022-11-14T23:04:10.574Z,10.20
2022-11-14T23:09:12.912Z,10.20
2022-11-14T23:14:15.386Z,10.30
2022-11-14T23:19:19.178Z,10.30
2022-11-14T23:24:21.499Z,10.30
2022-11-14T23:29:23.915Z,10.40
2022-11-14T23:34:27.641Z,10.40
2022-11-14T23:39:29.905Z,10.50
2022-11-14T23:44:32.220Z,10.50
2022-11-14T23:49:38.818Z,10.50
2022-11-14T23:54:41.196Z,10.60
2022-11-14T23:59:43.604Z,10.60
